Hlavní strana
METAR-TAF:

METAR-TAF

Letiště :

Starkville, Mississippi, Spojené státy americké

zeměpisná šířka: 33-25-59N, zeměpisná délka: 088-50-55W, výška: 101 m

Aktuální stav počasí

Zpráva byla vytvořena před 16 minutami, v 17:55 UTC
Severní vítr 6 kt s nárazy do 14 kt
Teplota 11°C
Vlhkost vzduchu 47%
Tlak 1026 hPa
Viditelnost: 16.1 km
Jasno

METAR: KSTF 151755Z AUTO 35006G14KT 10SM CLR 11/00 A3029 RMK AO2

Čas: 12:11 (18:11 UTC)


TAF: chybějící

Stav a předpovědi počasí z více než 4 000 letišť (zprávy METAR a TAF).

Červené a žluté tečky na mapě představují dostupné meteorologické stanice.

Když kurzor umístíte na tečku, zobrazí se název stanice.

Pak kliknutím zobrazíte stav a předpověď počasí.

Chcete-li změnit mapu, kliknutím na zelené tlačítko se znaménkem +mapu přiblížíte, kliknutím na zelené tlačítko se znaménkem – mapu oddálíte a kliknutím na zelené šipky přejdete na sousední mapy.


METAR-TAF: